Flight Track Log - Related Links

Times and Time Zones

All times are in EDT time to prevent confusion due to time zone crossing. See the N954BL flight status page for this flight to view local times or setup timezone preferences in your user account.

Time Position Orientation Groundspeed Altitude Reporting Facility
EDT Latitude Longitude Course Direction KTS MPH feet Rate Location/Type
Tue 03:46:10 PM 35.5972 -106.1086 10° North 152 175 7,400  Level Albuquerque Center
Tue 03:47:12 PM 35.6169 -106.1436 305° West 167 192 9,000 1,935 Climbing Albuquerque Center
Tue 03:48:14 PM 35.6764 -106.1353 North 179 206 11,400 2,129 Climbing Albuquerque Center
Tue 03:49:16 PM 35.7264 -106.1258 North 180 207 13,400 1,854 Climbing Albuquerque Center
Tue 03:50:00 PM 36.0186 -106.0032 10° North  Level Estimated
Tue 03:50:17 PM 35.7778 -106.1172 North 184 212 15,200  Level Albuquerque Center
Tue 03:51:00 PM 36.0855 -105.9887 10° North  Level Estimated
Tue 03:51:19 PM 35.8308 -106.1067 North 190 219 17,300  Level Albuquerque Center
Tue 03:52:21 PM 35.8856 -106.0986 North 196 226 18,900 1,415 Climbing Albuquerque Center
Tue 03:53:22 PM 35.9428 -106.0889 North 204 235 20,200 1,415 Climbing Albuquerque Center
Tue 03:54:24 PM 35.9997 -106.0786 North 206 237 21,800 1,452 Climbing Albuquerque Center
Tue 03:55:26 PM 36.0700 -106.0689 North 210 242 23,200 1,171 Climbing Albuquerque Center
Tue 03:56:27 PM 36.1308 -106.0572 North 217 250 24,200 1,073 Climbing Albuquerque Center
Tue 03:57:29 PM 36.1925 -106.0486 North 221 254 25,400 1,016 Climbing Albuquerque Center
Tue 03:58:31 PM 36.2531 -106.0394 North 221 254 26,300 878 Climbing Albuquerque Center
Tue 03:59:32 PM 36.3128 -106.0289 North 221 254 27,200 829 Climbing Albuquerque Center
Tue 04:00:34 PM 36.3742 -106.0200 North 223 257 28,000 484 Climbing Albuquerque Center
Tue 04:01:36 PM 36.4506 -106.0050 North 231 266 28,200 435 Climbing Albuquerque Center
Tue 04:02:38 PM 36.5186 -105.9947 North 245 282 28,900 732 Climbing Albuquerque Center
Tue 04:03:39 PM 36.5792 -105.9842 North 238 274 29,700 780 Climbing Albuquerque Center
Tue 04:04:41 PM 36.6472 -105.9731 North 224 258 30,500 624 Climbing Albuquerque Center
Tue 04:05:44 PM 36.7075 -105.9617 North 224 258 31,000 240 Climbing Denver Center
Tue 04:06:46 PM 36.7764 -105.9489 North 234 269 31,000  Level Denver Center
Tue 04:07:48 PM 36.8514 -105.9361 North 240 276 31,000  Level Denver Center
Tue 04:08:50 PM 36.9222 -105.9239 North 259 298 31,000  Level Denver Center
Tue 04:09:51 PM 36.9958 -105.9108 North 271 312 31,000  Level Denver Center
Tue 04:10:53 PM 37.0844 -105.8956 North 278 320 31,000  Level Denver Center
Tue 04:11:55 PM 37.1594 -105.8833 North 283 326 31,000  Level Denver Center
Tue 04:12:56 PM 37.2442 -105.8678 North 277 319 31,000  Level Denver Center
Tue 04:13:58 PM 37.3181 -105.8544 North 279 321 31,000  Level Denver Center
Tue 04:14:59 PM 37.3939 -105.8411 North 286 329 31,000  Level Denver Center
Tue 04:16:01 PM 37.4856 -105.8256 North 296 341 31,000  Level Denver Center
Tue 04:17:03 PM 37.5594 -105.8117 North 288 331 31,000  Level Denver Center
Tue 04:18:04 PM 37.6458 -105.7972 North 280 322 31,000  Level Denver Center
Tue 04:19:06 PM 37.7200 -105.7842 North 279 321 31,000  Level Denver Center
Tue 04:20:08 PM 37.8081 -105.7683 North 283 326 31,000  Level Denver Center
Tue 04:21:09 PM 37.8781 -105.7561 North 287 330 31,000  Level Denver Center
Tue 04:22:11 PM 37.9583 -105.7397 North 286 329 31,000  Level Denver Center
Tue 04:23:25 PM 38.0469 -105.7253 North 286 329 31,000  Level Denver Center
Tue 04:24:27 PM 38.1478 -105.7075 North 285 328 31,000  Level Denver Center
Tue 04:25:28 PM 38.2236 -105.6928 North 287 330 31,000 -244 Level Denver Center
Tue 04:26:30 PM 38.2978 -105.6806 North 283 326 30,500 -532 Descending Denver Center
Tue 04:27:32 PM 38.3953 -105.6633 North 308 354 29,900 -585 Descending Denver Center
Tue 04:28:33 PM 38.4800 -105.6472 North 317 365 29,300 -683 Descending Denver Center
Tue 04:29:35 PM 38.5625 -105.6328 North 314 361 28,500 -829 Descending Denver Center
Tue 04:30:36 PM 38.6450 -105.6156 North 314 361 27,600 -976 Descending Denver Center
Tue 04:31:38 PM 38.7519 -105.5961 North 308 354 26,500 -968 Descending Denver Center
Tue 04:32:40 PM 38.8308 -105.5842 North 303 349 25,600 -919 Descending Denver Center
Tue 04:33:42 PM 38.9103 -105.5683 North 302 348 24,600 -1,122 Descending Denver Center
Tue 04:34:43 PM 38.9881 -105.5553 North 267 307 23,300 -1,220 Descending Denver Center
Tue 04:35:45 PM 39.0572 -105.5433 North 260 299 22,100 -1,258 Descending Denver Center
Tue 04:36:47 PM 39.1381 -105.5272 North 264 304 20,700 -1,122 Descending Denver Center
Tue 04:37:48 PM 39.1986 -105.5169 North 255 293 19,800 -1,073 Descending Denver Center
Tue 04:38:50 PM 39.2667 -105.5047 North 250 288 18,500 -1,306 Descending Denver Center
Tue 04:39:52 PM 39.3342 -105.4917 North 247 284 17,100 -1,317 Descending Denver Center
Tue 04:40:53 PM 39.4106 -105.4564 20° North 251 289 15,800 -1,171 Descending Denver Center
Tue 04:41:55 PM 39.4517 -105.3853 53° Northeast 246 283 14,700 -1,113 Descending Denver Center
Tue 04:42:57 PM 39.4942 -105.3142 52° Northeast 234 269 13,500 -927 Descending Denver Center
Tue 04:43:58 PM 39.5339 -105.2464 53° Northeast 235 270 12,800 -1,024 Descending Denver Center
Tue 04:45:00 PM 39.5639 -105.1719 62° Northeast 234 269 11,400 -1,065 Descending Denver Center
Tue 04:46:02 PM 39.5994 -105.1078 54° Northeast 215 247 10,600 -829 Descending Denver Center
Tue 04:47:03 PM 39.6619 -105.1108 358° North 224 258 9,700 -829 Descending Denver Center
Tue 04:48:05 PM 39.7211 -105.1306 346° North 221 254 8,900 -726 Descending Denver Center
Tue 04:49:07 PM 39.7844 -105.1506 346° North 218 251 8,200 -629 Descending Denver Center
Tue 04:50:09 PM 39.8381 -105.1619 351° North 201 231 7,600 -488 Descending Denver Center
Tue 04:51:10 PM 39.8856 -105.1728 350° North 180 207 7,200 -634 Descending Denver Center
Tue 04:52:12 PM 39.9233 -105.1550 20° North 150 173 6,300 -774 Descending Denver Center
Tue 04:53:14 PM 39.9114 -105.1211 115° Southeast 118 136 5,600 -677 Descending Denver Center
Tue 04:55:00 PM 39.9088 -105.1172 131° Southeast  Level Estimated
Tue 05:02:00 PM 39.9088 -105.1172 217° Southwest  Level Estimated
Tue 05:03:00 PM 39.9088 -105.1172 217° Southwest  Level Estimated

Login

Don't have an account? Register now (free) for customized features, flight alerts, and more!